sensor_id;sensor_type;location;lat;lon;timestamp;pressure;altitude;pressure_sealevel;temperature;humidity
71151;BME280;59071;42.138;24.768;2023-05-14T00:00:45;100288.19;;;16.25;47.36
71151;BME280;59071;42.138;24.768;2023-05-14T00:03:11;100286.72;;;16.10;48.11
71151;BME280;59071;42.138;24.768;2023-05-14T00:05:37;100288.41;;;15.93;48.41
71151;BME280;59071;42.138;24.768;2023-05-14T00:08:02;100288.88;;;15.90;47.58
71151;BME280;59071;42.138;24.768;2023-05-14T00:10:27;100292.06;;;15.36;49.67
71151;BME280;59071;42.138;24.768;2023-05-14T00:12:53;100291.06;;;15.56;49.38
71151;BME280;59071;42.138;24.768;2023-05-14T00:15:18;100284.53;;;15.27;49.90
71151;BME280;59071;42.138;24.768;2023-05-14T00:17:44;100279.09;;;15.15;50.21
71151;BME280;59071;42.138;24.768;2023-05-14T00:20:09;100286.03;;;15.22;49.80
71151;BME280;59071;42.138;24.768;2023-05-14T00:22:36;100285.97;;;15.29;50.07
71151;BME280;59071;42.138;24.768;2023-05-14T00:25:01;100286.34;;;15.33;49.81
71151;BME280;59071;42.138;24.768;2023-05-14T00:27:27;100277.19;;;15.59;49.10
71151;BME280;59071;42.138;24.768;2023-05-14T00:29:52;100266.94;;;15.56;50.02
71151;BME280;59071;42.138;24.768;2023-05-14T00:32:17;100281.59;;;15.72;48.99
71151;BME280;59071;42.138;24.768;2023-05-14T00:34:43;100276.97;;;15.60;49.44
71151;BME280;59071;42.138;24.768;2023-05-14T00:37:08;100285.34;;;15.71;49.73
71151;BME280;59071;42.138;24.768;2023-05-14T00:39:33;100290.81;;;15.82;49.90
71151;BME280;59071;42.138;24.768;2023-05-14T00:41:58;100282.66;;;15.89;49.45
71151;BME280;59071;42.138;24.768;2023-05-14T00:44:24;100283.09;;;16.05;48.55
71151;BME280;59071;42.138;24.768;2023-05-14T00:46:49;100280.22;;;16.18;49.03
71151;BME280;59071;42.138;24.768;2023-05-14T00:49:14;100267.84;;;16.17;49.01
71151;BME280;59071;42.138;24.768;2023-05-14T00:51:40;100258.34;;;16.33;48.74
71151;BME280;59071;42.138;24.768;2023-05-14T00:54:06;100247.16;;;16.36;48.25
71151;BME280;59071;42.138;24.768;2023-05-14T00:56:31;100251.88;;;16.22;48.95
71151;BME280;59071;42.138;24.768;2023-05-14T00:58:58;100244.84;;;16.09;49.06
71151;BME280;59071;42.138;24.768;2023-05-14T01:01:23;100239.25;;;16.11;49.62
71151;BME280;59071;42.138;24.768;2023-05-14T01:03:48;100248.22;;;15.68;50.07
71151;BME280;59071;42.138;24.768;2023-05-14T01:11:16;100247.63;;;15.66;50.37
71151;BME280;59071;42.138;24.768;2023-05-14T01:13:46;100240.47;;;15.78;49.46
71151;BME280;59071;42.138;24.768;2023-05-14T01:16:14;100228.31;;;15.94;49.34
71151;BME280;59071;42.138;24.768;2023-05-14T01:18:42;100224.63;;;16.07;49.30
71151;BME280;59071;42.138;24.768;2023-05-14T01:23:51;100229.81;;;15.71;49.43
71151;BME280;59071;42.138;24.768;2023-05-14T01:26:17;100227.84;;;15.23;51.04
71151;BME280;59071;42.138;24.768;2023-05-14T01:28:42;100234.34;;;15.34;50.94
71151;BME280;59071;42.138;24.768;2023-05-14T01:31:11;100234.94;;;15.36;50.39
71151;BME280;59071;42.138;24.768;2023-05-14T01:33:40;100238.25;;;15.75;49.51
71151;BME280;59071;42.138;24.768;2023-05-14T01:36:06;100234.44;;;15.82;49.98
71151;BME280;59071;42.138;24.768;2023-05-14T01:38:32;100234.50;;;15.94;49.67
71151;BME280;59071;42.138;24.768;2023-05-14T01:40:58;100223.63;;;15.52;50.82
71151;BME280;59071;42.138;24.768;2023-05-14T01:43:24;100227.25;;;15.21;51.06
71151;BME280;59071;42.138;24.768;2023-05-14T01:45:49;100224.63;;;14.96;51.60
71151;BME280;59071;42.138;24.768;2023-05-14T01:48:15;100220.44;;;14.81;52.09
71151;BME280;59071;42.138;24.768;2023-05-14T01:50:40;100219.19;;;14.59;52.48
71151;BME280;59071;42.138;24.768;2023-05-14T01:53:05;100218.00;;;14.48;52.88
71151;BME280;59071;42.138;24.768;2023-05-14T01:55:31;100218.97;;;14.54;52.84
71151;BME280;59071;42.138;24.768;2023-05-14T01:57:56;100220.84;;;14.53;52.61
71151;BME280;59071;42.138;24.768;2023-05-14T02:00:22;100216.00;;;14.94;51.27
71151;BME280;59071;42.138;24.768;2023-05-14T02:02:48;100212.59;;;14.55;52.30
71151;BME280;59071;42.138;24.768;2023-05-14T02:05:13;100209.66;;;14.63;52.15
71151;BME280;59071;42.138;24.768;2023-05-14T02:07:38;100207.84;;;14.25;53.04
71151;BME280;59071;42.138;24.768;2023-05-14T02:10:04;100213.41;;;14.55;52.51
71151;BME280;59071;42.138;24.768;2023-05-14T02:12:29;100220.84;;;14.53;52.31
71151;BME280;59071;42.138;24.768;2023-05-14T02:14:54;100225.56;;;14.26;52.45
71151;BME280;59071;42.138;24.768;2023-05-14T02:17:20;100225.56;;;14.26;52.48
71151;BME280;59071;42.138;24.768;2023-05-14T02:19:45;100234.66;;;14.18;52.42
71151;BME280;59071;42.138;24.768;2023-05-14T02:22:11;100220.66;;;14.16;53.00
71151;BME280;59071;42.138;24.768;2023-05-14T02:24:36;100225.19;;;14.22;52.90
71151;BME280;59071;42.138;24.768;2023-05-14T02:27:02;100226.50;;;14.70;51.51
71151;BME280;59071;42.138;24.768;2023-05-14T02:29:27;100231.59;;;14.78;51.12
71151;BME280;59071;42.138;24.768;2023-05-14T02:31:53;100230.28;;;14.88;51.42
71151;BME280;59071;42.138;24.768;2023-05-14T02:34:18;100227.38;;;14.64;51.46
71151;BME280;59071;42.138;24.768;2023-05-14T02:36:43;100221.84;;;14.84;51.52
71151;BME280;59071;42.138;24.768;2023-05-14T02:39:09;100218.75;;;14.87;51.95
71151;BME280;59071;42.138;24.768;2023-05-14T02:41:34;100221.09;;;14.77;51.90
71151;BME280;59071;42.138;24.768;2023-05-14T02:43:59;100218.88;;;14.92;51.49
71151;BME280;59071;42.138;24.768;2023-05-14T02:46:25;100213.41;;;15.05;50.83
71151;BME280;59071;42.138;24.768;2023-05-14T02:48:50;100219.00;;;15.22;51.48
71151;BME280;59071;42.138;24.768;2023-05-14T02:51:16;100231.97;;;15.25;51.07
71151;BME280;59071;42.138;24.768;2023-05-14T02:53:41;100246.84;;;15.03;50.60
71151;BME280;59071;42.138;24.768;2023-05-14T02:56:06;100247.75;;;15.34;50.99
71151;BME280;59071;42.138;24.768;2023-05-14T02:58:32;100270.09;;;15.28;50.36
71151;BME280;59071;42.138;24.768;2023-05-14T03:00:57;100261.63;;;15.31;50.01
71151;BME280;59071;42.138;24.768;2023-05-14T03:03:22;100269.22;;;15.34;50.00
71151;BME280;59071;42.138;24.768;2023-05-14T03:05:48;100264.22;;;14.69;52.73
71151;BME280;59071;42.138;24.768;2023-05-14T03:08:13;100270.34;;;15.01;51.27
71151;BME280;59071;42.138;24.768;2023-05-14T03:10:38;100282.59;;;15.15;50.75
71151;BME280;59071;42.138;24.768;2023-05-14T03:13:04;100280.53;;;15.17;50.53
71151;BME280;59071;42.138;24.768;2023-05-14T03:15:29;100284.16;;;15.04;51.19
71151;BME280;59071;42.138;24.768;2023-05-14T03:17:55;100271.88;;;14.65;52.36
71151;BME280;59071;42.138;24.768;2023-05-14T03:20:21;100269.88;;;14.85;52.39
71151;BME280;59071;42.138;24.768;2023-05-14T03:22:47;100272.47;;;14.92;52.54
71151;BME280;59071;42.138;24.768;2023-05-14T03:25:12;100275.44;;;14.52;53.04
71151;BME280;59071;42.138;24.768;2023-05-14T03:27:37;100271.94;;;14.58;53.24
71151;BME280;59071;42.138;24.768;2023-05-14T03:30:03;100269.41;;;14.89;52.55
71151;BME280;59071;42.138;24.768;2023-05-14T03:32:28;100268.94;;;14.41;53.56
71151;BME280;59071;42.138;24.768;2023-05-14T03:34:54;100280.53;;;13.83;55.11
71151;BME280;59071;42.138;24.768;2023-05-14T03:37:19;100279.41;;;14.04;54.56
71151;BME280;59071;42.138;24.768;2023-05-14T03:39:45;100284.97;;;13.44;55.92
71151;BME280;59071;42.138;24.768;2023-05-14T03:42:10;100282.19;;;13.78;55.59
71151;BME280;59071;42.138;24.768;2023-05-14T03:44:35;100290.97;;;14.37;54.74
71151;BME280;59071;42.138;24.768;2023-05-14T03:47:00;100294.63;;;14.49;54.17
71151;BME280;59071;42.138;24.768;2023-05-14T03:49:26;100301.91;;;14.74;52.73
71151;BME280;59071;42.138;24.768;2023-05-14T03:51:51;100299.59;;;14.77;52.96
71151;BME280;59071;42.138;24.768;2023-05-14T03:54:16;100300.31;;;15.16;52.12
71151;BME280;59071;42.138;24.768;2023-05-14T03:56:41;100301.22;;;15.10;52.44
71151;BME280;59071;42.138;24.768;2023-05-14T03:59:07;100296.28;;;15.07;52.58
71151;BME280;59071;42.138;24.768;2023-05-14T04:01:32;100291.13;;;14.80;53.46
71151;BME280;59071;42.138;24.768;2023-05-14T04:03:57;100291.28;;;14.60;54.25
71151;BME280;59071;42.138;24.768;2023-05-14T04:06:22;100292.16;;;14.47;55.12
71151;BME280;59071;42.138;24.768;2023-05-14T04:08:48;100297.00;;;14.32;55.34
71151;BME280;59071;42.138;24.768;2023-05-14T04:11:13;100287.28;;;14.38;56.18
71151;BME280;59071;42.138;24.768;2023-05-14T04:13:38;100296.16;;;14.70;54.29
71151;BME280;59071;42.138;24.768;2023-05-14T04:16:04;100295.22;;;14.83;54.22
71151;BME280;59071;42.138;24.768;2023-05-14T04:18:29;100295.19;;;14.58;54.75
71151;BME280;59071;42.138;24.768;2023-05-14T04:20:58;100293.38;;;14.83;54.70
71151;BME280;59071;42.138;24.768;2023-05-14T04:23:24;100303.13;;;15.03;54.29
71151;BME280;59071;42.138;24.768;2023-05-14T04:25:49;100301.47;;;15.02;54.58
71151;BME280;59071;42.138;24.768;2023-05-14T04:28:14;100291.28;;;14.54;55.52
71151;BME280;59071;42.138;24.768;2023-05-14T04:30:40;100285.16;;;14.46;56.30
71151;BME280;59071;42.138;24.768;2023-05-14T04:33:05;100285.06;;;14.28;56.65
71151;BME280;59071;42.138;24.768;2023-05-14T04:35:31;100293.03;;;14.35;57.19
71151;BME280;59071;42.138;24.768;2023-05-14T04:37:56;100290.81;;;14.70;56.72
71151;BME280;59071;42.138;24.768;2023-05-14T04:40:21;100294.75;;;15.18;55.31
71151;BME280;59071;42.138;24.768;2023-05-14T04:42:47;100306.06;;;14.95;55.18
71151;BME280;59071;42.138;24.768;2023-05-14T04:45:12;100312.19;;;15.27;54.92
71151;BME280;59071;42.138;24.768;2023-05-14T04:47:37;100334.88;;;15.24;55.23
71151;BME280;59071;42.138;24.768;2023-05-14T04:50:03;100330.25;;;15.57;54.40
71151;BME280;59071;42.138;24.768;2023-05-14T04:52:28;100321.22;;;15.51;54.81
71151;BME280;59071;42.138;24.768;2023-05-14T04:54:54;100323.50;;;15.04;56.33
71151;BME280;59071;42.138;24.768;2023-05-14T04:57:19;100311.97;;;14.78;57.36
71151;BME280;59071;42.138;24.768;2023-05-14T04:59:45;100287.47;;;15.25;56.19
71151;BME280;59071;42.138;24.768;2023-05-14T05:02:10;100290.00;;;15.57;56.01
71151;BME280;59071;42.138;24.768;2023-05-14T05:04:35;100292.63;;;15.45;56.64
71151;BME280;59071;42.138;24.768;2023-05-14T05:07:01;100291.84;;;15.81;55.45
71151;BME280;59071;42.138;24.768;2023-05-14T05:09:26;100299.78;;;16.07;55.84
71151;BME280;59071;42.138;24.768;2023-05-14T05:11:51;100320.16;;;15.96;54.58
71151;BME280;59071;42.138;24.768;2023-05-14T05:14:16;100317.31;;;16.09;54.90
71151;BME280;59071;42.138;24.768;2023-05-14T05:16:42;100316.00;;;16.30;54.41
71151;BME280;59071;42.138;24.768;2023-05-14T05:19:07;100303.00;;;16.46;54.16
71151;BME280;59071;42.138;24.768;2023-05-14T05:21:33;100298.75;;;16.38;54.06
71151;BME280;59071;42.138;24.768;2023-05-14T05:23:58;100303.44;;;16.42;53.86
71151;BME280;59071;42.138;24.768;2023-05-14T05:26:25;100320.06;;;16.21;54.76
71151;BME280;59071;42.138;24.768;2023-05-14T05:28:50;100313.00;;;16.38;54.92
71151;BME280;59071;42.138;24.768;2023-05-14T05:31:16;100331.81;;;15.90;55.42
71151;BME280;59071;42.138;24.768;2023-05-14T05:33:41;100327.69;;;16.06;55.76
71151;BME280;59071;42.138;24.768;2023-05-14T05:36:06;100324.19;;;16.35;54.25
71151;BME280;59071;42.138;24.768;2023-05-14T05:38:32;100322.19;;;16.61;54.39
71151;BME280;59071;42.138;24.768;2023-05-14T05:40:57;100327.66;;;16.54;54.40
71151;BME280;59071;42.138;24.768;2023-05-14T05:43:23;100337.13;;;16.57;53.82
71151;BME280;59071;42.138;24.768;2023-05-14T05:45:48;100347.47;;;16.72;54.29
71151;BME280;59071;42.138;24.768;2023-05-14T05:48:13;100342.22;;;16.77;53.26
71151;BME280;59071;42.138;24.768;2023-05-14T05:50:40;100336.09;;;17.00;52.97
71151;BME280;59071;42.138;24.768;2023-05-14T05:53:05;100331.19;;;17.09;53.32
71151;BME280;59071;42.138;24.768;2023-05-14T05:55:30;100335.78;;;17.08;52.02
71151;BME280;59071;42.138;24.768;2023-05-14T05:57:56;100344.84;;;16.84;52.69
71151;BME280;59071;42.138;24.768;2023-05-14T06:00:21;100355.38;;;16.67;53.44
71151;BME280;59071;42.138;24.768;2023-05-14T06:02:47;100363.03;;;17.12;51.67
71151;BME280;59071;42.138;24.768;2023-05-14T06:05:13;100366.88;;;17.16;50.01
71151;BME280;59071;42.138;24.768;2023-05-14T06:07:38;100373.06;;;17.40;49.19
71151;BME280;59071;42.138;24.768;2023-05-14T06:10:03;100377.78;;;17.21;49.56
71151;BME280;59071;42.138;24.768;2023-05-14T06:12:29;100382.00;;;17.29;49.74
71151;BME280;59071;42.138;24.768;2023-05-14T06:14:54;100374.84;;;17.34;49.85
71151;BME280;59071;42.138;24.768;2023-05-14T06:17:21;100385.84;;;17.56;48.85
71151;BME280;59071;42.138;24.768;2023-05-14T06:19:47;100385.72;;;17.75;48.57
71151;BME280;59071;42.138;24.768;2023-05-14T06:22:12;100386.09;;;17.78;48.57
71151;BME280;59071;42.138;24.768;2023-05-14T06:24:38;100390.75;;;17.95;48.02
71151;BME280;59071;42.138;24.768;2023-05-14T06:27:04;100394.84;;;17.50;49.53
71151;BME280;59071;42.138;24.768;2023-05-14T06:29:29;100398.00;;;17.83;48.46
71151;BME280;59071;42.138;24.768;2023-05-14T06:31:55;100402.00;;;18.04;47.93
71151;BME280;59071;42.138;24.768;2023-05-14T06:34:21;100398.63;;;17.85;48.21
71151;BME280;59071;42.138;24.768;2023-05-14T06:36:46;100405.72;;;18.03;47.77
71151;BME280;59071;42.138;24.768;2023-05-14T06:39:11;100418.97;;;18.04;47.76
71151;BME280;59071;42.138;24.768;2023-05-14T06:41:37;100424.34;;;18.16;47.87
71151;BME280;59071;42.138;24.768;2023-05-14T06:44:02;100431.00;;;18.25;48.10
71151;BME280;59071;42.138;24.768;2023-05-14T06:46:27;100444.78;;;18.41;49.16
71151;BME280;59071;42.138;24.768;2023-05-14T06:48:53;100459.75;;;18.48;50.44
71151;BME280;59071;42.138;24.768;2023-05-14T06:51:18;100463.53;;;18.47;50.74
71151;BME280;59071;42.138;24.768;2023-05-14T06:53:43;100457.25;;;18.30;51.86
71151;BME280;59071;42.138;24.768;2023-05-14T06:56:08;100458.88;;;18.19;53.24
71151;BME280;59071;42.138;24.768;2023-05-14T06:58:34;100464.75;;;17.92;53.59
71151;BME280;59071;42.138;24.768;2023-05-14T07:00:59;100459.38;;;18.04;53.89
71151;BME280;59071;42.138;24.768;2023-05-14T07:03:24;100463.56;;;18.12;55.16
71151;BME280;59071;42.138;24.768;2023-05-14T07:05:50;100455.63;;;18.17;54.51
71151;BME280;59071;42.138;24.768;2023-05-14T07:08:15;100459.00;;;18.12;55.58
71151;BME280;59071;42.138;24.768;2023-05-14T07:10:41;100459.59;;;17.91;56.64
71151;BME280;59071;42.138;24.768;2023-05-14T07:13:06;100444.97;;;17.87;57.37
71151;BME280;59071;42.138;24.768;2023-05-14T07:15:32;100436.50;;;17.83;56.52
71151;BME280;59071;42.138;24.768;2023-05-14T07:17:57;100435.59;;;17.89;54.80
71151;BME280;59071;42.138;24.768;2023-05-14T07:20:22;100441.47;;;17.98;54.17
71151;BME280;59071;42.138;24.768;2023-05-14T07:22:48;100436.88;;;17.98;55.98
71151;BME280;59071;42.138;24.768;2023-05-14T07:25:13;100437.59;;;18.06;54.37
71151;BME280;59071;42.138;24.768;2023-05-14T07:27:39;100433.84;;;18.07;53.40
71151;BME280;59071;42.138;24.768;2023-05-14T07:30:05;100427.28;;;18.03;53.66
71151;BME280;59071;42.138;24.768;2023-05-14T07:32:31;100422.97;;;18.02;55.17
71151;BME280;59071;42.138;24.768;2023-05-14T07:34:56;100417.09;;;17.81;58.74
71151;BME280;59071;42.138;24.768;2023-05-14T07:37:21;100405.38;;;17.40;56.70
71151;BME280;59071;42.138;24.768;2023-05-14T07:39:47;100404.41;;;17.23;56.34
71151;BME280;59071;42.138;24.768;2023-05-14T07:42:12;100405.91;;;17.18;59.68
71151;BME280;59071;42.138;24.768;2023-05-14T07:44:37;100405.47;;;17.10;60.47
71151;BME280;59071;42.138;24.768;2023-05-14T07:47:03;100426.31;;;16.96;60.42
71151;BME280;59071;42.138;24.768;2023-05-14T07:49:28;100424.75;;;17.18;57.59
71151;BME280;59071;42.138;24.768;2023-05-14T07:51:53;100430.28;;;17.35;57.62
71151;BME280;59071;42.138;24.768;2023-05-14T07:54:19;100436.03;;;17.63;57.76
71151;BME280;59071;42.138;24.768;2023-05-14T07:56:44;100431.13;;;17.59;56.86
71151;BME280;59071;42.138;24.768;2023-05-14T07:59:09;100436.63;;;17.53;57.44
71151;BME280;59071;42.138;24.768;2023-05-14T08:01:34;100429.13;;;17.43;58.82
71151;BME280;59071;42.138;24.768;2023-05-14T08:04:00;100419.72;;;17.10;60.26
71151;BME280;59071;42.138;24.768;2023-05-14T08:06:26;100419.19;;;16.90;59.90
71151;BME280;59071;42.138;24.768;2023-05-14T08:08:51;100414.69;;;16.35;63.29
71151;BME280;59071;42.138;24.768;2023-05-14T08:11:17;100417.75;;;16.20;63.78
71151;BME280;59071;42.138;24.768;2023-05-14T08:13:42;100429.47;;;16.26;63.78
71151;BME280;59071;42.138;24.768;2023-05-14T08:16:07;100430.41;;;16.68;62.53
71151;BME280;59071;42.138;24.768;2023-05-14T08:18:33;100446.16;;;16.83;64.28
71151;BME280;59071;42.138;24.768;2023-05-14T08:20:58;100456.00;;;16.89;66.13
71151;BME280;59071;42.138;24.768;2023-05-14T08:23:23;100466.00;;;16.64;66.20
71151;BME280;59071;42.138;24.768;2023-05-14T08:25:48;100471.56;;;16.99;64.78
71151;BME280;59071;42.138;24.768;2023-05-14T08:28:14;100486.13;;;17.10;65.61
71151;BME280;59071;42.138;24.768;2023-05-14T08:30:39;100491.19;;;17.30;64.47
71151;BME280;59071;42.138;24.768;2023-05-14T08:33:04;100493.81;;;17.48;64.21
71151;BME280;59071;42.138;24.768;2023-05-14T08:35:30;100499.81;;;17.62;63.51
71151;BME280;59071;42.138;24.768;2023-05-14T08:37:55;100510.81;;;17.61;63.21
71151;BME280;59071;42.138;24.768;2023-05-14T08:40:21;100511.66;;;17.61;63.14
71151;BME280;59071;42.138;24.768;2023-05-14T08:42:46;100500.91;;;17.73;62.61
71151;BME280;59071;42.138;24.768;2023-05-14T08:45:15;100491.88;;;17.67;60.19
71151;BME280;59071;42.138;24.768;2023-05-14T08:47:42;100500.41;;;17.76;59.55
71151;BME280;59071;42.138;24.768;2023-05-14T08:50:09;100499.09;;;17.55;60.51
71151;BME280;59071;42.138;24.768;2023-05-14T08:52:34;100510.22;;;17.58;60.68
71151;BME280;59071;42.138;24.768;2023-05-14T08:55:02;100507.47;;;17.35;60.33
71151;BME280;59071;42.138;24.768;2023-05-14T08:57:28;100510.81;;;17.18;63.10
71151;BME280;59071;42.138;24.768;2023-05-14T08:59:55;100508.25;;;16.93;63.62
71151;BME280;59071;42.138;24.768;2023-05-14T09:02:26;100501.53;;;16.29;67.30
71151;BME280;59071;42.138;24.768;2023-05-14T09:04:56;100487.44;;;16.70;66.26
71151;BME280;59071;42.138;24.768;2023-05-14T09:07:22;100480.31;;;16.94;64.91
71151;BME280;59071;42.138;24.768;2023-05-14T09:09:47;100465.09;;;17.18;63.63
71151;BME280;59071;42.138;24.768;2023-05-14T09:12:13;100472.31;;;17.06;63.35
71151;BME280;59071;42.138;24.768;2023-05-14T09:14:38;100480.75;;;17.10;63.62
71151;BME280;59071;42.138;24.768;2023-05-14T09:17:03;100474.88;;;17.13;64.11
71151;BME280;59071;42.138;24.768;2023-05-14T09:19:29;100476.56;;;17.26;62.17
71151;BME280;59071;42.138;24.768;2023-05-14T09:21:55;100478.69;;;17.24;61.61
71151;BME280;59071;42.138;24.768;2023-05-14T09:24:22;100473.66;;;17.27;60.41
71151;BME280;59071;42.138;24.768;2023-05-14T09:26:55;100478.75;;;17.17;60.19
71151;BME280;59071;42.138;24.768;2023-05-14T09:29:20;100472.34;;;17.18;61.26
71151;BME280;59071;42.138;24.768;2023-05-14T09:31:46;100471.41;;;17.24;62.38
71151;BME280;59071;42.138;24.768;2023-05-14T09:34:11;100466.53;;;17.33;61.99
71151;BME280;59071;42.138;24.768;2023-05-14T09:36:47;100474.34;;;17.23;61.59
71151;BME280;59071;42.138;24.768;2023-05-14T09:39:12;100471.16;;;17.14;60.80
71151;BME280;59071;42.138;24.768;2023-05-14T09:41:37;100452.00;;;17.22;61.61
71151;BME280;59071;42.138;24.768;2023-05-14T09:44:03;100467.00;;;16.99;62.78
71151;BME280;59071;42.138;24.768;2023-05-14T09:46:28;100458.38;;;17.09;63.21
71151;BME280;59071;42.138;24.768;2023-05-14T09:48:55;100444.19;;;16.90;64.18
71151;BME280;59071;42.138;24.768;2023-05-14T09:51:21;100429.81;;;16.66;64.33
71151;BME280;59071;42.138;24.768;2023-05-14T09:53:46;100428.44;;;16.45;64.16
71151;BME280;59071;42.138;24.768;2023-05-14T09:56:12;100424.91;;;16.45;64.02
71151;BME280;59071;42.138;24.768;2023-05-14T09:58:37;100423.50;;;16.42;64.05
71151;BME280;59071;42.138;24.768;2023-05-14T10:01:02;100420.09;;;16.84;64.15
71151;BME280;59071;42.138;24.768;2023-05-14T10:03:29;100415.13;;;16.99;63.53
71151;BME280;59071;42.138;24.768;2023-05-14T10:05:55;100413.38;;;16.74;63.30
71151;BME280;59071;42.138;24.768;2023-05-14T10:08:26;100410.38;;;16.83;63.47
71151;BME280;59071;42.138;24.768;2023-05-14T10:10:52;100422.31;;;16.38;66.41
71151;BME280;59071;42.138;24.768;2023-05-14T10:13:19;100430.66;;;16.48;66.09
71151;BME280;59071;42.138;24.768;2023-05-14T10:15:48;100419.19;;;16.71;66.32
71151;BME280;59071;42.138;24.768;2023-05-14T10:18:17;100409.41;;;17.19;64.89
71151;BME280;59071;42.138;24.768;2023-05-14T10:20:43;100415.78;;;17.36;63.30
71151;BME280;59071;42.138;24.768;2023-05-14T10:23:09;100423.50;;;17.45;62.52
71151;BME280;59071;42.138;24.768;2023-05-14T10:25:35;100422.56;;;17.39;61.97
71151;BME280;59071;42.138;24.768;2023-05-14T10:28:01;100431.25;;;16.99;63.25
71151;BME280;59071;42.138;24.768;2023-05-14T10:30:27;100423.69;;;17.08;63.62
71151;BME280;59071;42.138;24.768;2023-05-14T10:33:05;100426.28;;;17.26;62.90
71151;BME280;59071;42.138;24.768;2023-05-14T10:35:31;100424.88;;;17.24;64.09
71151;BME280;59071;42.138;24.768;2023-05-14T10:38:14;100413.91;;;17.37;63.50
71151;BME280;59071;42.138;24.768;2023-05-14T10:40:40;100416.75;;;17.54;61.79
71151;BME280;59071;42.138;24.768;2023-05-14T10:43:05;100408.06;;;17.75;61.36
71151;BME280;59071;42.138;24.768;2023-05-14T10:45:32;100394.63;;;17.99;61.93
71151;BME280;59071;42.138;24.768;2023-05-14T10:47:58;100390.88;;;17.65;61.50
71151;BME280;59071;42.138;24.768;2023-05-14T10:50:23;100378.34;;;17.82;60.86
71151;BME280;59071;42.138;24.768;2023-05-14T10:52:50;100374.25;;;17.91;61.32
71151;BME280;59071;42.138;24.768;2023-05-14T10:55:16;100380.59;;;17.85;61.41
71151;BME280;59071;42.138;24.768;2023-05-14T10:57:42;100372.69;;;18.19;60.49
71151;BME280;59071;42.138;24.768;2023-05-14T11:00:08;100372.34;;;18.15;60.94
71151;BME280;59071;42.138;24.768;2023-05-14T11:02:42;100364.25;;;18.15;59.33
71151;BME280;59071;42.138;24.768;2023-05-14T11:05:08;100371.84;;;18.59;58.34
71151;BME280;59071;42.138;24.768;2023-05-14T11:07:39;100359.78;;;18.79;58.23
71151;BME280;59071;42.138;24.768;2023-05-14T11:12:33;100365.78;;;18.52;59.29
71151;BME280;59071;42.138;24.768;2023-05-14T11:14:59;100362.88;;;18.70;58.28
71151;BME280;59071;42.138;24.768;2023-05-14T11:17:26;100355.38;;;18.72;58.22
71151;BME280;59071;42.138;24.768;2023-05-14T11:19:52;100349.72;;;19.03;57.58
71151;BME280;59071;42.138;24.768;2023-05-14T11:22:17;100347.50;;;19.17;58.22
71151;BME280;59071;42.138;24.768;2023-05-14T11:24:43;100349.53;;;19.43;58.40
71151;BME280;59071;42.138;24.768;2023-05-14T11:27:08;100354.81;;;18.70;61.13
71151;BME280;59071;42.138;24.768;2023-05-14T11:29:35;100349.47;;;19.04;60.36
71151;BME280;59071;42.138;24.768;2023-05-14T11:32:01;100349.56;;;18.35;60.98
71151;BME280;59071;42.138;24.768;2023-05-14T11:34:26;100352.78;;;18.20;61.64
71151;BME280;59071;42.138;24.768;2023-05-14T11:36:52;100340.88;;;18.62;59.62
71151;BME280;59071;42.138;24.768;2023-05-14T11:39:17;100337.78;;;18.99;58.20
71151;BME280;59071;42.138;24.768;2023-05-14T11:41:43;100350.84;;;18.90;58.31
71151;BME280;59071;42.138;24.768;2023-05-14T11:44:09;100355.84;;;18.41;60.41
71151;BME280;59071;42.138;24.768;2023-05-14T11:46:35;100361.38;;;18.05;60.50
71151;BME280;59071;42.138;24.768;2023-05-14T11:49:02;100362.53;;;18.09;60.96
71151;BME280;59071;42.138;24.768;2023-05-14T11:51:27;100351.94;;;18.20;61.11
71151;BME280;59071;42.138;24.768;2023-05-14T11:53:53;100345.88;;;18.53;59.64
71151;BME280;59071;42.138;24.768;2023-05-14T11:56:19;100360.88;;;18.78;58.86
71151;BME280;59071;42.138;24.768;2023-05-14T11:58:48;100357.25;;;18.72;58.16
71151;BME280;59071;42.138;24.768;2023-05-14T12:01:14;100350.09;;;18.78;59.19
71151;BME280;59071;42.138;24.768;2023-05-14T12:03:40;100355.84;;;18.98;58.68
71151;BME280;59071;42.138;24.768;2023-05-14T12:06:06;100357.41;;;18.65;58.86
71151;BME280;59071;42.138;24.768;2023-05-14T12:08:34;100361.97;;;18.65;59.14
71151;BME280;59071;42.138;24.768;2023-05-14T12:11:01;100367.47;;;18.41;58.69
71151;BME280;59071;42.138;24.768;2023-05-14T12:13:27;100361.72;;;18.09;60.67
71151;BME280;59071;42.138;24.768;2023-05-14T12:15:53;100352.88;;;18.54;59.89
71151;BME280;59071;42.138;24.768;2023-05-14T12:18:19;100341.13;;;18.89;57.47
71151;BME280;59071;42.138;24.768;2023-05-14T12:20:48;100336.66;;;18.94;58.79
71151;BME280;59071;42.138;24.768;2023-05-14T12:23:13;100337.41;;;18.78;58.69
71151;BME280;59071;42.138;24.768;2023-05-14T12:25:39;100332.88;;;18.50;59.62
71151;BME280;59071;42.138;24.768;2023-05-14T12:28:14;100325.72;;;17.86;61.03
71151;BME280;59071;42.138;24.768;2023-05-14T12:30:39;100330.97;;;17.69;62.75
71151;BME280;59071;42.138;24.768;2023-05-14T12:33:05;100317.44;;;18.05;62.68
71151;BME280;59071;42.138;24.768;2023-05-14T12:35:31;100313.78;;;17.47;62.36
71151;BME280;59071;42.138;24.768;2023-05-14T12:37:56;100302.81;;;17.36;62.79
71151;BME280;59071;42.138;24.768;2023-05-14T12:40:21;100294.03;;;17.17;65.11
71151;BME280;59071;42.138;24.768;2023-05-14T12:42:46;100292.50;;;17.45;64.00